Time;durP1;ratioP1;P1;durP2;ratioP2;P2;SDS_P1;SDS_P2;PMS_P1;PMS_P2;Temp;Humidity;BMP_temperature;BMP_pressure;BME280_temperature;BME280_humidity;BME280_pressure;Samples;Min_cycle;Max_cycle;Signal;HPM_P1;HPM_P2
2022/10/28 00:00:51;;;;;;;38.93;36.23;;;;;;;13.58;100.00;101834.75;4992178;28;20500;-46
2022/10/28 00:03:19;;;;;;;38.73;35.80;;;;;;;13.58;100.00;101824.88;4992949;28;20434;-50
2022/10/28 00:05:46;;;;;;;39.47;36.87;;;;;;;13.57;100.00;101820.53;4992798;28;20446;-47
2022/10/28 00:08:14;;;;;;;38.77;36.30;;;;;;;13.57;100.00;101820.53;4981184;28;20437;-46
2022/10/28 00:10:43;;;;;;;40.30;37.60;;;;;;;13.56;100.00;101821.53;4992381;28;20544;-48
2022/10/28 00:13:10;;;;;;;39.60;36.83;;;;;;;13.56;100.00;101815.38;4992768;28;20514;-47
2022/10/28 00:15:38;;;;;;;40.07;36.80;;;;;;;13.55;100.00;101821.75;4993110;28;20509;-49
2022/10/28 00:18:06;;;;;;;39.20;36.40;;;;;;;13.54;100.00;101818.22;4992842;28;20433;-47
2022/10/28 00:20:33;;;;;;;40.00;37.00;;;;;;;13.53;100.00;101818.44;4991030;28;20524;-51
2022/10/28 00:23:01;;;;;;;40.20;37.40;;;;;;;13.52;100.00;101825.63;4992380;28;20454;-49
2022/10/28 00:25:28;;;;;;;38.17;35.57;;;;;;;13.51;100.00;101815.91;4992486;28;20434;-48
2022/10/28 00:27:57;;;;;;;39.57;36.73;;;;;;;13.50;100.00;101808.09;4992813;28;20839;-47
2022/10/28 00:30:25;;;;;;;37.47;34.83;;;;;;;13.48;100.00;101810.94;4991981;28;20521;-50
2022/10/28 00:32:52;;;;;;;40.50;37.80;;;;;;;13.46;100.00;101821.03;4992552;28;20454;-46
2022/10/28 00:35:20;;;;;;;40.23;37.43;;;;;;;13.44;100.00;101819.56;4992870;28;20935;-49
2022/10/28 00:37:48;;;;;;;39.50;36.80;;;;;;;13.42;100.00;101818.91;4992575;28;20491;-47
2022/10/28 00:40:15;;;;;;;39.63;36.83;;;;;;;13.40;100.00;101821.78;4991989;28;20457;-48
2022/10/28 00:42:43;;;;;;;40.63;37.83;;;;;;;13.39;100.00;101820.13;4992043;28;20508;-47
2022/10/28 00:45:12;;;;;;;40.03;37.17;;;;;;;13.38;100.00;101817.63;4992449;28;20508;-50
2022/10/28 00:47:44;;;;;;;39.80;37.20;;;;;;;13.35;100.00;101818.81;4992390;28;20434;-49
2022/10/28 00:50:26;;;;;;;40.10;36.97;;;;;;;13.34;100.00;101822.53;4991953;28;20473;-49
2022/10/28 00:52:58;;;;;;;40.47;37.37;;;;;;;13.31;100.00;101820.25;4991280;28;20458;-50
2022/10/28 00:55:26;;;;;;;41.77;38.13;;;;;;;13.28;100.00;101824.13;4992372;28;20438;-50
2022/10/28 00:57:55;;;;;;;40.33;37.63;;;;;;;13.27;100.00;101817.09;4992173;28;20441;-46
2022/10/28 01:00:25;;;;;;;41.30;38.40;;;;;;;13.24;100.00;101820.16;4991582;28;20489;-49
2022/10/28 01:02:53;;;;;;;40.43;37.77;;;;;;;13.22;100.00;101830.22;4991741;28;20501;-50
2022/10/28 01:05:23;;;;;;;41.40;38.17;;;;;;;13.20;100.00;101812.69;4991675;28;20446;-50
2022/10/28 01:07:52;;;;;;;39.40;36.83;;;;;;;13.18;100.00;101810.19;4992249;28;20462;-48
2022/10/28 01:10:28;;;;;;;41.03;38.13;;;;;;;13.17;100.00;101815.75;4991420;28;20485;-51
2022/10/28 01:13:10;;;;;;;40.33;37.50;;;;;;;13.13;100.00;101811.78;4992016;28;20457;-51
2022/10/28 01:15:47;;;;;;;41.77;38.37;;;;;;;13.11;100.00;101814.63;4986055;28;20434;-50
2022/10/28 01:18:22;;;;;;;39.83;37.07;;;;;;;13.11;100.00;101805.78;4989244;28;20492;-51
2022/10/28 01:21:20;;;;;;;39.90;37.20;;;;;;;13.08;100.00;101811.50;4984478;28;20888;-49
2022/10/28 01:23:59;;;;;;;40.00;37.10;;;;;;;13.07;100.00;101815.16;4988377;28;20918;-48
2022/10/28 01:26:44;;;;;;;42.00;39.30;;;;;;;13.03;100.00;101814.69;4991993;28;20492;-47
2022/10/28 01:29:44;;;;;;;41.87;38.67;;;;;;;13.01;100.00;101816.75;4991606;28;20465;-47
2022/10/28 01:32:17;;;;;;;40.70;37.77;;;;;;;12.99;100.00;101816.06;4991501;28;20537;-45
2022/10/28 01:34:52;;;;;;;40.33;37.63;;;;;;;12.97;100.00;101803.91;4992408;28;20891;-46
2022/10/28 01:37:29;;;;;;;40.93;38.10;;;;;;;12.96;100.00;101807.63;4995696;28;20422;-44
2022/10/28 01:40:08;;;;;;;40.57;37.47;;;;;;;12.94;100.00;101812.31;4995429;28;20875;-44
2022/10/28 01:42:41;;;;;;;41.50;38.40;;;;;;;12.93;100.00;101810.66;4995457;28;20505;-44
2022/10/28 01:45:14;;;;;;;41.53;38.63;;;;;;;12.93;100.00;101810.66;4995684;28;20516;-45
2022/10/28 01:47:50;;;;;;;42.47;39.50;;;;;;;12.90;100.00;101808.34;4995475;28;20414;-47
2022/10/28 01:50:24;;;;;;;41.90;38.90;;;;;;;12.88;100.00;101808.53;4994787;28;20947;-44
2022/10/28 01:52:56;;;;;;;41.23;38.33;;;;;;;12.87;100.00;101811.41;4995510;28;20456;-44
2022/10/28 01:55:28;;;;;;;42.77;39.33;;;;;;;12.85;100.00;101797.34;4994847;28;20438;-47
2022/10/28 01:57:58;;;;;;;42.67;39.47;;;;;;;12.84;100.00;101809.09;4995547;28;20433;-45
2022/10/28 02:00:27;;;;;;;40.60;37.80;;;;;;;12.81;100.00;101804.94;4994718;28;20979;-47
2022/10/28 02:02:56;;;;;;;42.97;39.80;;;;;;;12.78;100.00;101795.41;4995058;28;20457;-45
2022/10/28 02:05:38;;;;;;;42.53;39.20;;;;;;;12.76;100.00;101802.81;4995040;28;20919;-45
2022/10/28 02:08:22;;;;;;;39.77;36.97;;;;;;;12.73;100.00;101803.19;4995257;28;20435;-45
2022/10/28 02:11:03;;;;;;;43.33;39.50;;;;;;;12.70;100.00;101800.88;4994135;28;20536;-48
2022/10/28 02:13:40;;;;;;;42.00;39.03;;;;;;;12.67;100.00;101805.75;4995275;28;20476;-46
2022/10/28 02:16:17;;;;;;;43.20;39.63;;;;;;;12.65;100.00;101805.13;4994907;28;20895;-47
2022/10/28 02:18:53;;;;;;;42.27;39.37;;;;;;;12.63;100.00;101807.16;4994338;28;20496;-45
2022/10/28 02:21:30;;;;;;;43.30;40.10;;;;;;;12.63;100.00;101802.63;4994718;28;20445;-45
2022/10/28 02:24:08;;;;;;;44.53;40.50;;;;;;;12.62;100.00;101811.69;4992797;28;20862;-48
2022/10/28 02:26:41;;;;;;;45.00;41.33;;;;;;;12.61;100.00;101798.47;4994905;28;20430;-45
2022/10/28 02:29:17;;;;;;;46.60;43.10;;;;;;;12.59;100.00;101795.16;4994371;28;20461;-47
2022/10/28 02:31:49;;;;;;;48.63;45.40;;;;;;;12.58;100.00;101790.81;4994490;28;20485;-45
2022/10/28 02:34:21;;;;;;;52.77;48.87;;;;;;;12.56;100.00;101788.34;4994794;28;20434;-49
2022/10/28 02:36:52;;;;;;;51.30;48.10;;;;;;;12.55;100.00;101793.84;4994731;28;20488;-46
2022/10/28 02:39:24;;;;;;;52.80;49.40;;;;;;;12.56;100.00;101798.19;4994346;28;20466;-47
2022/10/28 02:41:55;;;;;;;52.47;48.97;;;;;;;12.56;100.00;101785.66;4994250;28;20454;-46
2022/10/28 02:44:27;;;;;;;52.70;49.07;;;;;;;12.55;100.00;101777.78;4994689;28;20434;-45
2022/10/28 02:46:59;;;;;;;54.17;50.33;;;;;;;12.55;100.00;101783.16;4993687;28;20481;-46
2022/10/28 02:49:32;;;;;;;53.43;49.70;;;;;;;12.54;100.00;101781.50;4993885;28;20473;-45
2022/10/28 02:52:03;;;;;;;53.40;50.20;;;;;;;12.54;100.00;101776.16;4994080;28;20485;-47
2022/10/28 02:54:37;;;;;;;53.93;50.63;;;;;;;12.53;100.00;101775.31;4994570;28;20492;-50
2022/10/28 02:57:09;;;;;;;53.73;50.23;;;;;;;12.52;100.00;101778.16;4994147;28;20452;-47
2022/10/28 02:59:37;;;;;;;52.90;49.70;;;;;;;12.51;100.00;101771.16;4987582;28;20532;-45
2022/10/28 03:02:04;;;;;;;54.57;51.07;;;;;;;12.50;100.00;101767.66;4993758;28;20461;-47
2022/10/28 03:04:33;;;;;;;54.87;51.73;;;;;;;12.48;100.00;101780.41;4994297;28;20426;-45
2022/10/28 03:07:01;;;;;;;55.90;52.67;;;;;;;12.47;100.00;101776.06;4994364;28;20438;-46
2022/10/28 03:09:28;;;;;;;56.70;52.77;;;;;;;12.47;100.00;101773.38;4993693;28;20462;-47
2022/10/28 03:11:56;;;;;;;55.60;52.10;;;;;;;12.44;100.00;101775.59;4993934;28;20513;-52
2022/10/28 03:14:24;;;;;;;56.83;53.30;;;;;;;12.40;100.00;101772.44;4993850;28;20469;-50
2022/10/28 03:16:51;;;;;;;56.47;52.97;;;;;;;12.36;100.00;101765.81;4993873;28;20442;-51
2022/10/28 03:19:19;;;;;;;54.13;50.83;;;;;;;12.33;100.00;101760.00;4992503;28;20461;-48
2022/10/28 03:21:47;;;;;;;53.80;50.70;;;;;;;12.32;100.00;101761.84;4992407;28;20781;-45
2022/10/28 03:24:15;;;;;;;54.93;51.33;;;;;;;12.29;100.00;101756.84;4986425;28;20488;-46
2022/10/28 03:26:43;;;;;;;56.63;52.90;;;;;;;12.29;100.00;101759.53;4993909;28;20488;-50
2022/10/28 03:29:10;;;;;;;55.87;52.03;;;;;;;12.28;100.00;101757.84;4993278;28;20465;-48
2022/10/28 03:31:38;;;;;;;55.43;51.90;;;;;;;12.27;100.00;101772.25;4993391;28;21016;-45
2022/10/28 03:34:05;;;;;;;59.13;55.53;;;;;;;12.26;100.00;101775.94;4993497;28;21002;-49
2022/10/28 03:36:33;;;;;;;56.43;52.83;;;;;;;12.25;100.00;101776.09;4993754;28;20438;-48
2022/10/28 03:39:02;;;;;;;58.13;54.23;;;;;;;12.25;100.00;101774.25;4993166;28;20465;-48
2022/10/28 03:41:29;;;;;;;58.73;54.83;;;;;;;12.26;100.00;101775.09;4993164;28;20520;-47
2022/10/28 03:43:57;;;;;;;59.20;54.70;;;;;;;12.28;100.00;101773.06;4993393;28;20438;-45
2022/10/28 03:46:24;;;;;;;57.60;53.80;;;;;;;12.27;100.00;101769.59;4993379;28;20493;-46
2022/10/28 03:48:52;;;;;;;56.67;53.00;;;;;;;12.29;100.00;101766.72;4990727;28;20461;-48
2022/10/28 03:51:20;;;;;;;58.83;55.00;;;;;;;12.28;100.00;101776.56;4993193;28;20549;-45
2022/10/28 03:53:48;;;;;;;59.33;54.97;;;;;;;12.28;100.00;101773.91;4993007;28;20943;-45
2022/10/28 03:56:17;;;;;;;60.17;55.80;;;;;;;12.28;100.00;101767.72;4993228;28;20993;-45
2022/10/28 03:58:47;;;;;;;59.77;55.37;;;;;;;12.26;100.00;101762.56;4992615;28;20464;-46
2022/10/28 04:01:14;;;;;;;64.13;59.63;;;;;;;12.27;100.00;101764.25;4992928;28;20890;-47
2022/10/28 04:03:42;;;;;;;61.77;57.77;;;;;;;12.28;100.00;101749.00;4993157;28;20492;-47
2022/10/28 04:06:10;;;;;;;62.83;58.40;;;;;;;12.29;100.00;101746.16;4993179;28;20433;-46
2022/10/28 04:08:38;;;;;;;63.10;58.70;;;;;;;12.31;100.00;101745.97;4992627;28;20839;-51
2022/10/28 04:11:06;;;;;;;61.23;57.03;;;;;;;12.32;100.00;101743.13;4993377;28;21819;-50
2022/10/28 04:13:35;;;;;;;61.10;56.40;;;;;;;12.37;100.00;101754.09;4992889;28;20481;-52
2022/10/28 04:16:03;;;;;;;61.30;57.00;;;;;;;12.39;100.00;101754.75;4992969;28;20438;-50
2022/10/28 04:18:30;;;;;;;64.93;60.20;;;;;;;12.43;100.00;101753.34;4992701;28;20931;-48
2022/10/28 04:20:58;;;;;;;66.30;61.00;;;;;;;12.47;100.00;101745.78;4989302;28;20504;-50
2022/10/28 04:23:26;;;;;;;62.47;58.07;;;;;;;12.50;100.00;101748.09;4992671;28;20430;-48
2022/10/28 04:25:54;;;;;;;63.97;59.27;;;;;;;12.53;100.00;101750.41;4992641;28;20489;-49
2022/10/28 04:28:23;;;;;;;63.97;59.67;;;;;;;12.56;100.00;101750.03;4992687;28;20915;-50
2022/10/28 04:30:52;;;;;;;61.07;57.13;;;;;;;12.57;100.00;101741.81;4999394;22;20566;-46
2022/10/28 04:33:19;;;;;;;64.63;59.87;;;;;;;12.57;100.00;101739.13;5004994;28;20465;-44
2022/10/28 04:35:47;;;;;;;64.83;60.10;;;;;;;12.60;100.00;101738.75;5012202;28;20506;-44
2022/10/28 04:38:15;;;;;;;63.87;59.67;;;;;;;12.61;100.00;101724.38;5001374;28;20429;-45
2022/10/28 04:40:43;;;;;;;67.10;62.10;;;;;;;12.62;100.00;101723.38;5010808;28;20484;-44
2022/10/28 04:43:10;;;;;;;65.27;60.77;;;;;;;12.63;100.00;101718.84;5012381;28;20515;-47
2022/10/28 04:45:38;;;;;;;66.43;61.47;;;;;;;12.64;100.00;101715.13;5007592;28;20942;-46
2022/10/28 04:48:09;;;;;;;69.30;64.43;;;;;;;12.67;100.00;101720.13;5002192;28;20492;-44
2022/10/28 04:50:36;;;;;;;65.70;61.60;;;;;;;12.69;100.00;101712.75;5011374;28;20519;-47
2022/10/28 04:53:04;;;;;;;68.80;63.33;;;;;;;12.71;100.00;101716.06;5009171;28;20473;-45
2022/10/28 04:55:31;;;;;;;64.40;60.00;;;;;;;12.73;100.00;101716.69;5008841;28;20441;-45
2022/10/28 04:58:00;;;;;;;65.77;61.33;;;;;;;12.73;100.00;101725.56;5012145;28;20511;-45
2022/10/28 05:00:29;;;;;;;64.33;59.97;;;;;;;12.75;100.00;101720.84;5011137;28;20985;-45
2022/10/28 05:03:00;;;;;;;65.67;61.37;;;;;;;12.76;100.00;101717.16;5011010;28;20483;-44
2022/10/28 05:05:29;;;;;;;64.87;60.67;;;;;;;12.77;100.00;101716.16;5010415;28;20483;-44
2022/10/28 05:07:57;;;;;;;65.53;60.20;;;;;;;12.77;100.00;101720.66;5003325;28;20995;-46
2022/10/28 05:10:24;;;;;;;63.13;59.10;;;;;;;12.78;100.00;101715.13;5005537;28;20468;-45
2022/10/28 05:12:52;;;;;;;67.30;62.40;;;;;;;12.80;100.00;101714.13;5007553;28;20477;-46
2022/10/28 05:15:20;;;;;;;66.43;61.40;;;;;;;12.80;100.00;101711.44;5016078;28;20495;-44
2022/10/28 05:17:49;;;;;;;66.27;61.87;;;;;;;12.82;100.00;101712.06;5015957;28;20809;-47
2022/10/28 05:20:18;;;;;;;68.27;63.77;;;;;;;12.85;100.00;101719.72;5019171;28;20968;-44
2022/10/28 05:22:48;;;;;;;70.20;65.70;;;;;;;12.87;100.00;101720.38;5027227;28;20506;-43
2022/10/28 05:25:16;;;;;;;67.03;62.63;;;;;;;12.89;100.00;101715.66;5036052;28;20494;-45
2022/10/28 05:27:44;;;;;;;69.47;64.93;;;;;;;12.91;100.00;101716.28;5035664;28;20498;-43
2022/10/28 05:30:13;;;;;;;68.03;63.33;;;;;;;12.93;100.00;101706.25;5035575;28;20525;-45
2022/10/28 05:32:41;;;;;;;68.10;63.43;;;;;;;12.93;100.00;101709.72;5034771;28;20821;-46
2022/10/28 05:35:10;;;;;;;70.57;66.07;;;;;;;12.96;100.00;101700.50;5035540;28;20440;-45
2022/10/28 05:37:37;;;;;;;71.97;66.87;;;;;;;12.98;100.00;101701.16;5035372;28;20481;-43
2022/10/28 05:40:08;;;;;;;68.60;64.27;;;;;;;12.97;100.00;101705.66;5031164;28;21045;-44
2022/10/28 05:42:40;;;;;;;69.13;64.30;;;;;;;13.01;100.00;101698.09;5029675;28;20502;-45
2022/10/28 05:45:08;;;;;;;70.33;65.67;;;;;;;13.01;100.00;101706.13;5035198;28;20490;-44
2022/10/28 05:47:36;;;;;;;73.50;68.70;;;;;;;13.02;100.00;101710.47;5035276;28;20489;-44
2022/10/28 05:50:07;;;;;;;74.03;68.93;;;;;;;13.00;100.00;101699.94;5034770;28;20463;-48
2022/10/28 05:52:34;;;;;;;70.73;66.13;;;;;;;13.00;100.00;101699.94;5034773;28;21036;-44
2022/10/28 05:55:02;;;;;;;73.37;67.97;;;;;;;12.99;100.00;101690.22;5035165;28;20494;-44
2022/10/28 05:57:33;;;;;;;73.87;68.97;;;;;;;12.97;100.00;101691.44;5034900;28;20486;-44
2022/10/28 06:00:01;;;;;;;75.10;69.53;;;;;;;12.95;100.00;101693.50;5033762;28;21065;-44
2022/10/28 06:02:28;;;;;;;73.03;67.70;;;;;;;12.93;100.00;101696.34;5034586;28;20518;-46
2022/10/28 06:04:56;;;;;;;77.57;72.40;;;;;;;12.92;100.00;101707.25;5035023;28;21172;-47
2022/10/28 06:07:24;;;;;;;80.50;74.17;;;;;;;12.90;100.00;101702.09;5034752;28;20428;-44
2022/10/28 06:09:51;;;;;;;72.13;67.07;;;;;;;12.89;100.00;101697.75;5034362;28;20521;-44
2022/10/28 06:12:19;;;;;;;79.90;74.50;;;;;;;12.87;100.00;101691.78;5024696;28;21015;-44
2022/10/28 06:14:48;;;;;;;76.07;70.97;;;;;;;12.86;100.00;101698.13;5014564;28;20846;-45
2022/10/28 06:17:15;;;;;;;79.40;73.40;;;;;;;12.84;100.00;101704.69;5014675;28;20440;-44
2022/10/28 06:19:43;;;;;;;78.63;72.23;;;;;;;12.84;100.00;101700.19;5014968;28;20469;-45
2022/10/28 06:22:11;;;;;;;80.67;75.03;;;;;;;12.84;100.00;101691.31;5014996;28;20448;-44
2022/10/28 06:24:39;;;;;;;74.23;69.40;;;;;;;12.86;100.00;101691.94;5014493;28;20429;-49
2022/10/28 06:27:06;;;;;;;76.43;70.93;;;;;;;12.87;100.00;101696.28;5022979;28;20856;-46
2022/10/28 06:29:34;;;;;;;77.50;72.20;;;;;;;12.89;100.00;101700.44;5027940;28;20468;-46
2022/10/28 06:32:03;;;;;;;72.23;67.10;;;;;;;12.91;100.00;101698.38;5034243;28;20475;-43
2022/10/28 06:34:31;;;;;;;74.10;68.80;;;;;;;12.93;100.00;101707.06;5034178;28;20675;-47
2022/10/28 06:36:58;;;;;;;78.03;72.57;;;;;;;12.97;100.00;101707.50;5034291;28;20428;-45
2022/10/28 06:39:26;;;;;;;75.77;69.90;;;;;;;13.01;100.00;101704.28;5029625;28;20461;-45
2022/10/28 06:41:54;;;;;;;73.73;69.00;;;;;;;13.05;100.00;101702.06;5016463;28;20463;-44
2022/10/28 06:44:22;;;;;;;71.60;66.00;;;;;;;13.10;100.00;101694.31;5014261;28;20429;-43
2022/10/28 06:46:49;;;;;;;73.27;68.40;;;;;;;13.16;100.00;101701.59;5014597;28;20496;-45
2022/10/28 06:49:18;;;;;;;70.00;65.30;;;;;;;13.21;100.00;101694.63;5018824;28;20499;-44
2022/10/28 06:51:46;;;;;;;70.47;65.90;;;;;;;13.28;100.00;101697.38;5018796;28;20500;-45
2022/10/28 06:54:13;;;;;;;72.03;67.20;;;;;;;13.35;100.00;101690.22;5014258;28;20468;-45
2022/10/28 06:56:44;;;;;;;70.90;65.23;;;;;;;13.45;100.00;101696.09;5013627;28;20433;-45
2022/10/28 06:59:12;;;;;;;70.80;66.10;;;;;;;13.53;100.00;101695.97;5017258;28;20822;-43
2022/10/28 07:01:39;;;;;;;64.77;60.73;;;;;;;13.66;100.00;101696.09;5013210;28;21040;-43
2022/10/28 07:04:11;;;;;;;65.30;60.20;;;;;;;13.79;100.00;101701.56;5032557;28;20783;-46
2022/10/28 07:06:40;;;;;;;64.87;60.87;;;;;;;13.91;100.00;101704.53;5033937;28;20853;-45
2022/10/28 07:09:09;;;;;;;66.57;62.40;;;;;;;13.96;100.00;101696.72;5033423;28;20491;-46
2022/10/28 07:11:36;;;;;;;64.87;61.03;;;;;;;14.02;100.00;101705.84;5033198;28;20510;-43
2022/10/28 07:14:04;;;;;;;69.03;64.70;;;;;;;14.05;100.00;101697.41;5033895;28;20506;-48
2022/10/28 07:16:31;;;;;;;66.60;62.43;;;;;;;14.10;100.00;101705.69;5033577;28;20440;-44
2022/10/28 07:18:59;;;;;;;65.53;61.43;;;;;;;14.15;100.00;101700.59;5032979;28;20460;-44
2022/10/28 07:21:28;;;;;;;63.40;59.50;;;;;;;14.19;100.00;101699.97;5025130;28;20445;-43
2022/10/28 07:23:57;;;;;;;63.63;59.80;;;;;;;14.23;100.00;101700.41;5030783;28;20435;-44
2022/10/28 07:26:25;;;;;;;60.17;56.40;;;;;;;14.30;100.00;101694.06;5033040;28;20428;-43
2022/10/28 07:28:53;;;;;;;63.13;59.03;;;;;;;14.37;100.00;101694.97;5032708;28;20933;-47
2022/10/28 07:31:21;;;;;;;60.17;56.00;;;;;;;14.44;100.00;101699.53;5032954;28;20464;-45
2022/10/28 07:33:52;;;;;;;60.00;55.50;;;;;;;14.46;100.00;101695.63;5032734;28;20507;-43
2022/10/28 07:36:20;;;;;;;61.23;57.23;;;;;;;14.46;100.00;101690.25;5033396;28;20498;-43
2022/10/28 07:38:48;;;;;;;58.70;54.80;;;;;;;14.51;100.00;101701.25;5032634;28;21181;-43
2022/10/28 07:41:19;;;;;;;56.10;52.23;;;;;;;14.56;100.00;101693.41;5032762;28;21027;-45
2022/10/28 07:43:46;;;;;;;56.30;52.50;;;;;;;14.63;100.00;101694.28;5032303;28;20478;-44
2022/10/28 07:46:14;;;;;;;52.03;48.03;;;;;;;14.76;100.00;101688.09;5033111;28;20837;-48
2022/10/28 07:48:42;;;;;;;51.47;47.97;;;;;;;14.86;100.00;101689.41;5032626;28;20436;-48
2022/10/28 07:51:12;;;;;;;50.90;47.13;;;;;;;14.93;100.00;101686.75;5032616;28;20459;-44
2022/10/28 07:53:41;;;;;;;48.07;44.30;;;;;;;15.01;100.00;101688.41;5033065;28;20464;-45
2022/10/28 07:56:12;;;;;;;44.67;41.40;;;;;;;15.12;100.00;101685.13;5032901;28;20471;-44
2022/10/28 07:58:42;;;;;;;46.40;42.67;;;;;;;15.25;100.00;101694.06;5032199;28;20440;-46
2022/10/28 08:01:11;;;;;;;45.83;42.30;;;;;;;15.36;100.00;101684.53;5032840;28;20494;-45
2022/10/28 08:03:39;;;;;;;43.50;40.50;;;;;;;15.52;100.00;101684.19;5032665;28;20936;-47
2022/10/28 08:06:10;;;;;;;43.27;40.30;;;;;;;15.68;100.00;101678.38;5032629;28;20444;-43
2022/10/28 08:08:38;;;;;;;46.23;42.90;;;;;;;15.78;100.00;101688.72;5032188;28;20416;-44
2022/10/28 08:11:10;;;;;;;42.77;39.97;;;;;;;15.85;100.00;101689.56;5032127;28;20512;-45
2022/10/28 08:13:37;;;;;;;46.20;42.80;;;;;;;15.88;100.00;101687.28;5032553;28;20463;-43
2022/10/28 08:16:08;;;;;;;45.53;42.20;;;;;;;15.99;100.00;101689.34;5032539;28;20443;-45
2022/10/28 08:18:37;;;;;;;44.63;41.63;;;;;;;16.06;100.00;101681.25;5032248;28;20440;-45
2022/10/28 08:21:06;;;;;;;43.27;40.37;;;;;;;16.11;100.00;101677.94;5028890;28;20459;-44
2022/10/28 08:23:34;;;;;;;44.27;41.07;;;;;;;16.21;100.00;101676.47;5018082;28;20428;-46
2022/10/28 08:26:02;;;;;;;43.37;40.13;;;;;;;16.33;100.00;101677.47;5012175;28;20429;-45
2022/10/28 08:28:30;;;;;;;46.87;42.30;;;;;;;16.44;100.00;101673.28;5012740;28;20441;-43
2022/10/28 08:31:00;;;;;;;44.53;41.30;;;;;;;16.54;100.00;101673.72;5011872;28;20448;-45
2022/10/28 08:33:38;;;;;;;46.23;42.47;;;;;;;16.66;100.00;101666.63;5012503;28;20439;-46
2022/10/28 08:36:07;;;;;;;47.10;43.63;;;;;;;16.79;100.00;101679.16;5012433;28;20461;-44
2022/10/28 08:38:34;;;;;;;46.13;42.43;;;;;;;16.90;100.00;101671.28;5012075;28;20433;-43
2022/10/28 08:41:12;;;;;;;44.53;41.67;;;;;;;17.06;100.00;101665.34;5012131;28;20507;-44
2022/10/28 08:43:56;;;;;;;45.50;42.50;;;;;;;17.12;100.00;101669.88;5012359;28;20482;-43
2022/10/28 08:46:34;;;;;;;44.23;40.67;;;;;;;17.30;100.00;101666.44;5011693;28;20441;-44
2022/10/28 08:49:09;;;;;;;45.03;41.83;;;;;;;17.39;100.00;101670.53;5011720;28;20996;-44
2022/10/28 08:51:44;;;;;;;42.90;40.03;;;;;;;17.38;100.00;101665.34;5012047;28;20813;-44
2022/10/28 08:54:17;;;;;;;44.27;40.97;;;;;;;17.32;100.00;101660.84;5012356;28;20790;-44
2022/10/28 08:56:48;;;;;;;43.10;40.20;;;;;;;17.34;100.00;101659.56;5012250;28;20429;-44
2022/10/28 08:59:21;;;;;;;42.43;39.40;;;;;;;17.44;100.00;101656.41;5011879;28;20460;-43
2022/10/28 09:01:53;;;;;;;46.07;42.13;;;;;;;17.53;100.00;101653.19;5012007;28;20449;-43
2022/10/28 09:04:29;;;;;;;42.20;39.40;;;;;;;17.62;100.00;101653.78;5012268;28;20504;-45
2022/10/28 09:06:57;;;;;;;43.73;40.40;;;;;;;17.72;100.00;101642.47;5012433;28;20491;-43
2022/10/28 09:09:25;;;;;;;44.07;40.87;;;;;;;17.94;100.00;101654.53;5011457;28;20471;-43
2022/10/28 09:12:15;;;;;;;41.27;38.27;;;;;;;18.13;100.00;101651.59;5012067;28;20456;-44
2022/10/28 09:14:57;;;;;;;43.60;40.60;;;;;;;18.29;100.00;101657.47;5011962;28;20472;-45
2022/10/28 09:17:37;;;;;;;42.17;39.17;;;;;;;18.40;100.00;101651.31;5011864;28;20844;-45
2022/10/28 09:20:17;;;;;;;41.60;39.00;;;;;;;18.55;100.00;101651.78;5013284;28;20973;-45
2022/10/28 09:22:55;;;;;;;43.40;40.03;;;;;;;18.68;100.00;101644.34;5023125;28;20467;-43
2022/10/28 09:25:30;;;;;;;42.80;39.57;;;;;;;18.78;100.00;101638.41;5031705;28;20436;-45
2022/10/28 09:28:15;;;;;;;45.27;41.83;;;;;;;18.84;100.00;101632.06;5031493;28;20431;-44
2022/10/28 09:30:51;;;;;;;44.00;40.60;;;;;;;18.97;100.00;101634.56;5030874;28;20881;-45
2022/10/28 09:33:49;;;;;;;51.67;43.20;;;;;;;18.99;100.00;101637.06;5031491;28;20925;-44
2022/10/28 09:36:24;;;;;;;43.13;40.10;;;;;;;19.10;100.00;101631.69;5031370;28;20479;-44
2022/10/28 09:38:56;;;;;;;43.70;40.60;;;;;;;19.11;100.00;101640.63;5031236;28;20455;-44
2022/10/28 09:41:27;;;;;;;46.07;42.20;;;;;;;19.17;100.00;101637.81;5031453;28;20452;-44
2022/10/28 09:44:03;;;;;;;43.90;40.90;;;;;;;19.23;100.00;101636.88;5031382;28;20929;-44
2022/10/28 09:46:32;;;;;;;43.73;40.80;;;;;;;19.33;100.00;101633.59;5031227;28;20990;-44
2022/10/28 09:49:11;;;;;;;42.40;39.90;;;;;;;19.42;100.00;101632.25;5030730;28;20506;-45
2022/10/28 09:51:47;;;;;;;41.53;38.93;;;;;;;19.43;100.00;101630.38;5031187;28;20509;-45
2022/10/28 09:54:16;;;;;;;43.53;40.03;;;;;;;19.45;100.00;101625.53;5031711;28;20477;-44
2022/10/28 09:56:44;;;;;;;42.13;39.33;;;;;;;19.50;100.00;101625.69;5033100;28;20471;-45
2022/10/28 09:59:14;;;;;;;44.03;41.10;;;;;;;19.59;100.00;101625.06;5034438;28;20994;-46
2022/10/28 10:01:44;;;;;;;40.70;38.40;;;;;;;19.61;100.00;101624.84;5034618;28;20505;-44
2022/10/28 10:04:18;;;;;;;41.57;38.60;;;;;;;19.70;100.00;101628.84;5035039;28;20440;-47
2022/10/28 10:06:51;;;;;;;39.77;37.47;;;;;;;19.76;100.00;101627.91;5034941;28;20408;-44
2022/10/28 10:09:24;;;;;;;38.33;36.03;;;;;;;19.82;100.00;101622.38;5034391;28;20455;-43
2022/10/28 10:11:55;;;;;;;38.90;36.60;;;;;;;19.88;100.00;101623.31;5033242;28;20513;-45
2022/10/28 10:14:28;;;;;;;40.07;37.53;;;;;;;19.82;100.00;101619.69;5019036;28;20436;-46
2022/10/28 10:17:00;;;;;;;40.30;37.80;;;;;;;19.86;100.00;101620.03;5014799;28;20535;-43
2022/10/28 10:19:27;;;;;;;39.50;36.93;;;;;;;19.89;100.00;101631.19;5014121;28;20471;-43
2022/10/28 10:21:56;;;;;;;41.37;37.97;;;;;;;19.93;100.00;101628.84;5023356;28;20506;-44
2022/10/28 10:24:28;;;;;;;39.40;37.20;;;;;;;19.95;100.00;101620.50;5034231;28;20443;-43
2022/10/28 10:26:57;;;;;;;39.23;36.93;;;;;;;20.03;100.00;101622.84;5007637;28;20463;-44
2022/10/28 10:29:25;;;;;;;39.50;37.10;;;;;;;20.09;100.00;101624.59;5034404;28;20432;-47
2022/10/28 10:32:06;;;;;;;39.20;36.70;;;;;;;20.18;100.00;101613.16;5044023;22;20500;-50
2022/10/28 10:34:35;;;;;;;38.53;35.80;;;;;;;20.31;100.00;101617.50;5008156;28;20799;-49
2022/10/28 10:37:04;;;;;;;39.57;36.37;;;;;;;20.41;100.00;101607.72;4994338;28;20489;-48
2022/10/28 10:39:36;;;;;;;37.67;35.50;;;;;;;20.48;100.00;101612.16;4994740;28;20934;-48
2022/10/28 10:42:16;;;;;;;39.00;36.60;;;;;;;20.50;100.00;101602.72;4993761;28;20461;-46
2022/10/28 10:44:43;;;;;;;40.03;37.53;;;;;;;20.55;100.00;101605.53;4994709;28;20842;-44
2022/10/28 10:47:18;;;;;;;37.97;35.87;;;;;;;20.60;100.00;101593.97;4993233;28;20536;-46
2022/10/28 10:49:48;;;;;;;39.10;36.77;;;;;;;20.67;100.00;101587.34;4994726;28;20851;-47
2022/10/28 10:52:21;;;;;;;38.57;35.67;;;;;;;20.73;100.00;101585.53;4994222;28;20523;-50
2022/10/28 10:55:01;;;;;;;37.47;35.37;;;;;;;20.82;100.00;101589.50;4994489;28;20494;-49
2022/10/28 10:57:29;;;;;;;36.93;34.60;;;;;;;20.88;100.00;101585.81;4993747;28;20539;-48
2022/10/28 10:59:57;;;;;;;37.93;35.67;;;;;;;20.88;100.00;101586.63;4994210;28;20429;-47
2022/10/28 11:02:29;;;;;;;36.43;34.00;;;;;;;20.99;100.00;101579.53;4993651;28;20453;-50
2022/10/28 11:05:00;;;;;;;35.63;33.63;;;;;;;21.12;100.00;101568.38;4994244;28;20441;-51
2022/10/28 11:07:31;;;;;;;36.47;34.57;;;;;;;21.12;100.00;101579.22;4993052;28;20512;-48
2022/10/28 11:10:00;;;;;;;35.57;33.60;;;;;;;21.18;100.00;101569.28;4994118;28;20507;-48
2022/10/28 11:12:30;;;;;;;35.67;33.77;;;;;;;21.20;100.00;101564.44;4993251;28;20458;-53
2022/10/28 11:14:59;;;;;;;35.57;33.57;;;;;;;21.19;100.00;101560.06;4992731;28;20437;-49
2022/10/28 11:17:29;;;;;;;34.63;32.30;;;;;;;21.23;100.00;101563.94;4992374;28;20974;-50